Atlantic Elm — 9HA3054 — position and weather

sailwx.info

Track history (hours):
 
Tides and Currents Weather Stations Pressure Air Temp Water Temp Dewpoint Dewpoint Depression Visibility Wind Speed Wind Dir Waves Ship Positions

Atlantic Elm

Last reported at 2015-Jul-03 05:27 UTC. Time now 2015-Jul-06 00:56 UTC.
Position N 29°57' W 090°09'.

Length 190 m; draft 10.4 m.

Type: Ship. MMSI: 229081000.

Date/timePositionNaut miles runAvg speedWind from/ knotsBaromVisibWave heightAir tempDewpointWater temp
2015-Jul-03 05:27N 29°57' W 090°09'5 5.5
2015-Jul-03 04:32N 29°56' W 090°04'6 5.7
2015-Jul-03 03:31N 29°55' W 089°57'4 4.2
2015-Jul-03 02:33N 29°52' W 089°59'40910.4
2015-Jul-01 11:17N 27°38' W 082°38'912.3
2015-Jul-01 10:33N 27°45' W 082°32'10 9.8
2015-Jul-01 09:33N 27°54' W 082°26'1 1.4
2015-Jul-01 08:31N 27°54' W 082°25'0 0.0
2015-Jul-01 07:31N 27°54' W 082°25'0 0.0
2015-Jul-01 06:31N 27°54' W 082°25'0 0.0
2015-Jul-01 05:31N 27°54' W 082°25'0 0.0
2015-Jul-01 04:31N 27°54' W 082°25'0 0.0
2015-Jul-01 03:31N 27°54' W 082°25'0 0.0
2015-Jul-01 02:25N 27°54' W 082°25'0 0.0
2015-Jul-01 01:31N 27°54' W 082°25'0 0.0
2015-Jul-01 00:31N 27°54' W 082°25'0 0.0
2015-Jun-30 23:31N 27°54' W 082°25'0 0.0
2015-Jun-30 22:31N 27°54' W 082°25'0 0.0
2015-Jun-30 21:31N 27°54' W 082°25'0 0.0
2015-Jun-30 20:31N 27°54' W 082°25'0 0.0
2015-Jun-30 19:31N 27°54' W 082°25'0 0.0
2015-Jun-30 18:31N 27°54' W 082°25'0 0.0
2015-Jun-30 17:31N 27°54' W 082°25'0 0.0
2015-Jun-30 16:31N 27°54' W 082°25'0 0.0
2015-Jun-30 15:31N 27°54' W 082°25'0 0.0
2015-Jun-30 14:31N 27°54' W 082°25'0 0.0
2015-Jun-30 13:31N 27°54' W 082°25'0 0.0
2015-Jun-30 12:31N 27°54' W 082°25'0 0.0
2015-Jun-30 11:31N 27°54' W 082°25'0 0.0
2015-Jun-30 10:31N 27°54' W 082°25'0 0.0
2015-Jun-30 09:31N 27°54' W 082°25'0 0.0
2015-Jun-30 08:31N 27°54' W 082°25'0 0.0
2015-Jun-30 07:31N 27°54' W 082°25'0 0.0
2015-Jun-30 06:31N 27°54' W 082°25'0 0.0
2015-Jun-30 05:31N 27°54' W 082°25'0 0.0
2015-Jun-30 04:31N 27°54' W 082°25'0 0.0
2015-Jun-30 03:31N 27°54' W 082°25'0 0.0
2015-Jun-30 02:31N 27°54' W 082°25'0 0.0
2015-Jun-30 01:31N 27°54' W 082°25'0 0.0
2015-Jun-30 00:31N 27°54' W 082°25'0 0.0
2015-Jun-29 23:31N 27°54' W 082°25'0 0.0
2015-Jun-29 22:31N 27°54' W 082°25'0 0.4
2015-Jun-29 21:31N 27°54' W 082°26'5 5.4
2015-Jun-29 20:33N 27°49' W 082°27'10 9.9
2015-Jun-29 19:33N 27°41' W 082°34'  
2015-Jun-26 07:33N 27°38' W 083°06'9 8.9
2015-Jun-26 06:33N 27°29' W 083°07'1411.7
2015-Jun-26 05:23N 27°15' W 083°09'910.7
2015-Jun-26 04:32N 27°07' W 083°05'1110.8
2015-Jun-26 03:33N 26°57' W 083°03'204 5.0
2015-Jun-24 10:24N 25°42' W 079°31'8 9.9
2015-Jun-24 09:33N 25°50' W 079°30'1010.1
2015-Jun-24 08:33N 25°60' W 079°28'1110.5
2015-Jun-24 07:33N 26°10' W 079°25'1010.4
2015-Jun-24 06:32N 26°20' W 079°23'1510.0
2015-Jun-24 05:04N 26°35' W 079°21'510.1
2015-Jun-24 04:33N 26°40' W 079°21'1110.6
2015-Jun-24 03:33N 26°51' W 079°20'1110.7
2015-Jun-24 02:33N 27°01' W 079°18'1110.8
2015-Jun-24 01:33N 27°12' W 079°17'1211.1
2015-Jun-24 00:30N 27°24' W 079°14'  
Track history (hours):
 
Tides and Currents Weather Stations Pressure Air Temp Water Temp Dewpoint Dewpoint Depression Visibility Wind Speed Wind Dir Waves Ship Positions

Atlantic Elm

Last reported at 2015-Jul-03 05:27 UTC. Time now 2015-Jul-06 00:56 UTC.
Position N 29°57' W 090°09'.

Length 190 m; draft 10.4 m.

Type: Ship. MMSI: 229081000.

Date/timePositionNaut miles runAvg speedWind from/ knotsBaromVisibWave heightAir tempDewpointWater temp
2015-Jul-03 05:27N 29°57' W 090°09'5 5.5
2015-Jul-03 04:32N 29°56' W 090°04'6 5.7
2015-Jul-03 03:31N 29°55' W 089°57'4 4.2
2015-Jul-03 02:33N 29°52' W 089°59'40910.4
2015-Jul-01 11:17N 27°38' W 082°38'912.3
2015-Jul-01 10:33N 27°45' W 082°32'10 9.8
2015-Jul-01 09:33N 27°54' W 082°26'1 1.4
2015-Jul-01 08:31N 27°54' W 082°25'0 0.0
2015-Jul-01 07:31N 27°54' W 082°25'0 0.0
2015-Jul-01 06:31N 27°54' W 082°25'0 0.0
2015-Jul-01 05:31N 27°54' W 082°25'0 0.0
2015-Jul-01 04:31N 27°54' W 082°25'0 0.0
2015-Jul-01 03:31N 27°54' W 082°25'0 0.0
2015-Jul-01 02:25N 27°54' W 082°25'0 0.0
2015-Jul-01 01:31N 27°54' W 082°25'0 0.0
2015-Jul-01 00:31N 27°54' W 082°25'0 0.0
2015-Jun-30 23:31N 27°54' W 082°25'0 0.0
2015-Jun-30 22:31N 27°54' W 082°25'0 0.0
2015-Jun-30 21:31N 27°54' W 082°25'0 0.0
2015-Jun-30 20:31N 27°54' W 082°25'0 0.0
2015-Jun-30 19:31N 27°54' W 082°25'0 0.0
2015-Jun-30 18:31N 27°54' W 082°25'0 0.0
2015-Jun-30 17:31N 27°54' W 082°25'0 0.0
2015-Jun-30 16:31N 27°54' W 082°25'0 0.0
2015-Jun-30 15:31N 27°54' W 082°25'0 0.0
2015-Jun-30 14:31N 27°54' W 082°25'0 0.0
2015-Jun-30 13:31N 27°54' W 082°25'0 0.0
2015-Jun-30 12:31N 27°54' W 082°25'0 0.0
2015-Jun-30 11:31N 27°54' W 082°25'0 0.0
2015-Jun-30 10:31N 27°54' W 082°25'0 0.0
2015-Jun-30 09:31N 27°54' W 082°25'0 0.0
2015-Jun-30 08:31N 27°54' W 082°25'0 0.0
2015-Jun-30 07:31N 27°54' W 082°25'0 0.0
2015-Jun-30 06:31N 27°54' W 082°25'0 0.0
2015-Jun-30 05:31N 27°54' W 082°25'0 0.0
2015-Jun-30 04:31N 27°54' W 082°25'0 0.0
2015-Jun-30 03:31N 27°54' W 082°25'0 0.0
2015-Jun-30 02:31N 27°54' W 082°25'0 0.0
2015-Jun-30 01:31N 27°54' W 082°25'0 0.0
2015-Jun-30 00:31N 27°54' W 082°25'0 0.0
2015-Jun-29 23:31N 27°54' W 082°25'0 0.0
2015-Jun-29 22:31N 27°54' W 082°25'0 0.4
2015-Jun-29 21:31N 27°54' W 082°26'5 5.4
2015-Jun-29 20:33N 27°49' W 082°27'10 9.9
2015-Jun-29 19:33N 27°41' W 082°34'  
2015-Jun-26 07:33N 27°38' W 083°06'9 8.9
2015-Jun-26 06:33N 27°29' W 083°07'1411.7
2015-Jun-26 05:23N 27°15' W 083°09'910.7
2015-Jun-26 04:32N 27°07' W 083°05'1110.8
2015-Jun-26 03:33N 26°57' W 083°03'204 5.0
2015-Jun-24 10:24N 25°42' W 079°31'8 9.9
2015-Jun-24 09:33N 25°50' W 079°30'1010.1
2015-Jun-24 08:33N 25°60' W 079°28'1110.5
2015-Jun-24 07:33N 26°10' W 079°25'1010.4
2015-Jun-24 06:32N 26°20' W 079°23'1510.0
2015-Jun-24 05:04N 26°35' W 079°21'510.1
2015-Jun-24 04:33N 26°40' W 079°21'1110.6
2015-Jun-24 03:33N 26°51' W 079°20'1110.7
2015-Jun-24 02:33N 27°01' W 079°18'1110.8
2015-Jun-24 01:33N 27°12' W 079°17'1211.1
2015-Jun-24 00:30N 27°24' W 079°14'  

Dump ship's entire track history